This is the latest recevied weather packets stored in our database for station/object KF7OVD-WX. If no packets are shown the sender has not sent any weather packets the latest 10 day(s).
| Time | Temp. | Humidity | Pressure | Rain* | Wind** | Luminosity | Snow |
|---|---|---|---|---|---|---|---|
| 1777761619 | 26.11° C | 15% | 1020.8 hPa | 0 mm | - | - | - |
| 1777760731 | 25° C | 16% | 1021 hPa | 0 mm | - | - | - |
| 1777759522 | 25° C | 16% | 1021.3 hPa | 0 mm | - | - | - |
| 1777757728 | 25° C | 17% | 1021.9 hPa | 0 mm | - | - | - |
| 1777756821 | 25° C | 16% | 1022.1 hPa | 0 mm | - | - | - |
| 1777756217 | 25.56° C | 17% | 1022.2 hPa | 0 mm | - | - | - |
| 1777755631 | 25.56° C | 17% | 1022.4 hPa | 0 mm | - | - | - |
| 1777752917 | 25° C | 18% | 1022.9 hPa | 0 mm | - | - | - |
| 1777752615 | 25.56° C | 17% | 1023.2 hPa | 0 mm | - | - | - |
| 1777747818 | 24.44° C | 20% | 1024.1 hPa | 0 mm | - | - | - |
| 1777747230 | 23.89° C | 20% | 1024.3 hPa | 0 mm | - | - | - |
| 1777746323 | 22.22° C | 21% | 1024.5 hPa | 0 mm | - | - | - |
| 1777745718 | 22.78° C | 23% | 1024.6 hPa | 0 mm | - | - | - |
| 1777743931 | 21.67° C | 24% | 1025.1 hPa | 0 mm | - | - | - |
| 1777743025 | 21.11° C | 25% | 1025.1 hPa | 0 mm | - | - | - |
| 1777740929 | 19.44° C | 31% | 1025.4 hPa | 0 mm | - | - | - |
| 1777739721 | 18.33° C | 31% | 1025.7 hPa | 0 mm | - | - | - |
| 1777738815 | 17.22° C | 33% | 1025.7 hPa | 0 mm | - | - | - |
| 1777737927 | 16.67° C | 33% | 1025.7 hPa | 0 mm | - | - | - |
| 1777736416 | 14.44° C | 35% | 1026 hPa | 0 mm | - | - | - |
| 1777735819 | 15° C | 34% | 1025.9 hPa | 0 mm | - | - | - |
| 1777734025 | 13.33° C | 33% | 1025.9 hPa | 0 mm | - | - | - |
| 1777730118 | 1.67° C | 63% | 1025.7 hPa | 0 mm | - | - | - |
| 1777727418 | -3.33° C | 76% | 1025.3 hPa | 0 mm | - | - | - |
| 1777727116 | -3.89° C | 76% | 1025.3 hPa | 0 mm | - | - | - |
* Rain latest hour (hover to see other rain measurements)
** Current wind speed in m/s (hover to see current wind gust speed)